createdAt,value
2018-11-11T00:00:06.579Z,99763.66
2018-11-11T00:01:12.423Z,99771.39
2018-11-11T00:02:18.207Z,99764.88
2018-11-11T00:03:23.975Z,99765.60
2018-11-11T00:04:29.774Z,99765.73
2018-11-11T00:05:35.549Z,99764.97
2018-11-11T00:06:41.377Z,99770.17
2018-11-11T00:07:46.824Z,99765.23
2018-11-11T00:08:52.611Z,99766.14
2018-11-11T00:09:58.399Z,99769.04
2018-11-11T00:11:03.882Z,99776.30
2018-11-11T00:12:09.685Z,99775.14
2018-11-11T00:13:15.493Z,99777.98
2018-11-11T00:14:21.272Z,99779.03
2018-11-11T00:15:26.698Z,99778.11
2018-11-11T00:16:32.456Z,99785.77
2018-11-11T00:17:38.285Z,99782.03
2018-11-11T00:18:44.108Z,99779.68
2018-11-11T00:19:49.876Z,99780.52
2018-11-11T00:21:01.315Z,99782.20
2018-11-11T00:22:06.749Z,99785.52
2018-11-11T00:23:12.529Z,99785.02
2018-11-11T00:24:18.312Z,99784.09
2018-11-11T00:25:23.763Z,99783.37
2018-11-11T00:26:29.571Z,99781.23
2018-11-11T00:27:35.356Z,99775.86
2018-11-11T00:28:41.225Z,99777.92
2018-11-11T00:29:47.185Z,99777.80
2018-11-11T00:30:52.920Z,99773.50
2018-11-11T00:31:58.737Z,99776.59
2018-11-11T00:33:04.171Z,99775.89
2018-11-11T00:34:10.021Z,99779.30
2018-11-11T00:35:15.762Z,99775.17
2018-11-11T00:36:21.577Z,99773.81
2018-11-11T00:37:27.616Z,99774.23
2018-11-11T00:38:33.387Z,99778.92
2018-11-11T00:39:39.291Z,99774.23
2018-11-11T00:40:45.217Z,99778.66
2018-11-11T00:41:51.020Z,99777.28
2018-11-11T00:42:56.773Z,99776.91
2018-11-11T00:44:02.583Z,99780.56
2018-11-11T00:45:07.753Z,99786.03
2018-11-11T00:46:13.547Z,99784.59
2018-11-11T00:47:19.332Z,99788.19
2018-11-11T00:48:25.119Z,99789.68
2018-11-11T00:49:30.953Z,99786.14
2018-11-11T00:50:36.782Z,99783.89
2018-11-11T00:51:42.567Z,99782.75
2018-11-11T00:52:48.344Z,99790.78
2018-11-11T00:53:54.170Z,99785.47
2018-11-11T00:54:59.942Z,99788.55
2018-11-11T00:56:05.059Z,99789.37
2018-11-11T00:57:10.851Z,99787.13
2018-11-11T00:58:16.634Z,99786.30
2018-11-11T00:59:22.468Z,99785.15
2018-11-11T01:00:28.310Z,99794.63
2018-11-11T01:01:34.102Z,99791.39
2018-11-11T01:02:39.832Z,99793.29
2018-11-11T01:03:45.633Z,99797.81
2018-11-11T01:04:51.421Z,99793.05
2018-11-11T01:05:56.885Z,99794.25
2018-11-11T01:07:02.312Z,99794.30
2018-11-11T01:08:08.115Z,99789.80
2018-11-11T01:09:13.568Z,99789.93
2018-11-11T01:10:19.469Z,99791.51
2018-11-11T01:11:25.319Z,99787.03
2018-11-11T01:12:31.157Z,99791.85
2018-11-11T01:13:36.953Z,99782.81
2018-11-11T01:14:42.775Z,99785.21
2018-11-11T01:15:48.557Z,99782.81
2018-11-11T01:16:54.335Z,99783.27
2018-11-11T01:18:00.146Z,99791.51
2018-11-11T01:19:05.258Z,99782.73
2018-11-11T01:20:11.082Z,99786.75
2018-11-11T01:21:16.842Z,99785.90
2018-11-11T01:22:22.690Z,99786.59
2018-11-11T01:23:30.621Z,99783.66
2018-11-11T01:24:36.400Z,99785.52
2018-11-11T01:25:42.166Z,99781.20
2018-11-11T01:26:47.942Z,99777.45
2018-11-11T01:27:53.740Z,99792.30
2018-11-11T01:28:59.536Z,99785.30
2018-11-11T01:30:04.616Z,99794.30
2018-11-11T01:31:10.432Z,99790.11
2018-11-11T01:32:16.247Z,99796.70
2018-11-11T01:33:22.055Z,99795.17
2018-11-11T01:34:27.835Z,99788.41
2018-11-11T01:35:33.633Z,99790.38
2018-11-11T01:36:39.460Z,99795.17
2018-11-11T01:37:45.282Z,99799.34
2018-11-11T01:38:51.113Z,99795.00
2018-11-11T01:39:57.101Z,99802.48
2018-11-11T01:41:02.926Z,99804.87
2018-11-11T01:42:08.788Z,99803.00
2018-11-11T01:43:14.627Z,99803.50
2018-11-11T01:44:20.503Z,99801.31
2018-11-11T01:45:26.344Z,99799.50
2018-11-11T01:46:32.131Z,99798.20
2018-11-11T01:47:37.940Z,99802.86
2018-11-11T01:48:43.742Z,99801.42
2018-11-11T01:49:49.504Z,99802.12
2018-11-11T01:50:55.315Z,99801.45
2018-11-11T01:52:01.165Z,99799.66
2018-11-11T01:53:06.714Z,99804.58
2018-11-11T01:54:12.536Z,99806.41
2018-11-11T01:55:18.467Z,99813.29
2018-11-11T01:56:24.252Z,99809.23
2018-11-11T01:57:30.037Z,99809.69
2018-11-11T01:58:35.830Z,99812.33
2018-11-11T01:59:41.659Z,99812.94
2018-11-11T02:00:47.415Z,99814.80
2018-11-11T02:01:52.228Z,99819.45
2018-11-11T02:02:58.069Z,99816.63
2018-11-11T02:04:03.916Z,99822.59
2018-11-11T02:05:15.206Z,99822.78
2018-11-11T02:06:23.779Z,99820.73
2018-11-11T02:07:29.611Z,99826.54
2018-11-11T02:08:35.397Z,99823.75
2018-11-11T02:09:41.202Z,99818.52
2018-11-11T02:10:47.229Z,99820.29
2018-11-11T02:11:53.073Z,99819.20
2018-11-11T02:12:58.876Z,99814.63
2018-11-11T02:14:04.289Z,99821.78
2018-11-11T02:15:09.676Z,99820.40
2018-11-11T02:16:15.459Z,99820.99
2018-11-11T02:17:21.182Z,99826.00
2018-11-11T02:18:26.966Z,99820.90
2018-11-11T02:19:32.763Z,99816.58
2018-11-11T02:20:38.636Z,99822.20
2018-11-11T02:21:44.511Z,99825.80
2018-11-11T02:22:50.465Z,99822.72
2018-11-11T02:23:55.921Z,99820.47
2018-11-11T02:25:01.735Z,99822.52
2018-11-11T02:26:08.423Z,99827.95
2018-11-11T02:27:15.416Z,99828.56
2018-11-11T02:28:21.230Z,99826.63
2018-11-11T02:29:26.956Z,99824.98
2018-11-11T02:30:32.742Z,99823.84
2018-11-11T02:31:38.503Z,99830.14
2018-11-11T02:32:44.267Z,99828.47
2018-11-11T02:33:50.057Z,99826.20
2018-11-11T02:34:55.884Z,99832.24
2018-11-11T02:36:01.648Z,99826.58
2018-11-11T02:37:08.313Z,99830.86
2018-11-11T02:38:14.109Z,99830.59
2018-11-11T02:39:19.911Z,99831.88
2018-11-11T02:40:25.678Z,99828.87
2018-11-11T02:41:31.502Z,99830.36
2018-11-11T02:42:37.011Z,99832.56
2018-11-11T02:43:43.037Z,99833.70
2018-11-11T02:44:48.784Z,99837.60
2018-11-11T02:45:54.615Z,99839.92
2018-11-11T02:47:00.402Z,99840.03
2018-11-11T02:48:05.465Z,99844.03
2018-11-11T02:49:11.195Z,99847.15
2018-11-11T02:50:16.965Z,99845.11
2018-11-11T02:51:22.788Z,99847.41
2018-11-11T02:52:28.551Z,99851.36
2018-11-11T02:53:34.316Z,99844.91
2018-11-11T02:54:40.136Z,99853.00
2018-11-11T02:55:45.936Z,99845.72
2018-11-11T02:56:51.665Z,99851.10
2018-11-11T02:57:57.435Z,99846.86
2018-11-11T02:59:03.223Z,99844.27
2018-11-11T03:00:08.353Z,99848.44
2018-11-11T03:01:14.176Z,99851.64
2018-11-11T03:02:19.970Z,99847.67
2018-11-11T03:03:25.749Z,99843.22
2018-11-11T03:04:31.626Z,99853.81
2018-11-11T03:05:37.564Z,99851.85
2018-11-11T03:06:43.386Z,99859.77
2018-11-11T03:07:49.183Z,99851.33
2018-11-11T03:08:56.279Z,99858.09
2018-11-11T03:10:02.130Z,99854.13
2018-11-11T03:11:07.971Z,99856.28
2018-11-11T03:12:13.770Z,99862.55
2018-11-11T03:13:19.579Z,99856.92
2018-11-11T03:14:25.420Z,99856.09
2018-11-11T03:15:31.260Z,99855.64
2018-11-11T03:16:37.016Z,99855.89
2018-11-11T03:17:42.824Z,99849.16
2018-11-11T03:18:48.675Z,99853.53
2018-11-11T03:19:54.456Z,99853.64
2018-11-11T03:21:00.233Z,99847.00
2018-11-11T03:22:06.032Z,99859.23
2018-11-11T03:23:11.843Z,99854.98
2018-11-11T03:24:17.567Z,99854.98
2018-11-11T03:25:23.369Z,99850.41
2018-11-11T03:26:29.230Z,99837.19
2018-11-11T03:27:35.038Z,99853.98
2018-11-11T03:28:40.802Z,99845.83
2018-11-11T03:29:52.363Z,99844.81
2018-11-11T03:30:58.157Z,99843.23
2018-11-11T03:32:04.153Z,99842.07
2018-11-11T03:33:09.979Z,99840.66
2018-11-11T03:34:15.822Z,99847.77
2018-11-11T03:35:21.595Z,99849.91
2018-11-11T03:36:27.404Z,99854.76
2018-11-11T03:37:34.189Z,99855.89
2018-11-11T03:38:39.977Z,99857.16
2018-11-11T03:39:45.771Z,99862.31
2018-11-11T03:40:51.584Z,99864.17
2018-11-11T03:41:57.358Z,99859.92
2018-11-11T03:43:03.151Z,99857.61
2018-11-11T03:44:09.856Z,99852.09
2018-11-11T03:45:15.733Z,99855.75
2018-11-11T03:46:21.582Z,99847.41
2018-11-11T03:47:27.325Z,99849.02
2018-11-11T03:48:33.114Z,99853.78
2018-11-11T03:49:38.941Z,99848.41
2018-11-11T03:50:45.637Z,99845.70
2018-11-11T03:51:51.471Z,99848.34
2018-11-11T03:52:57.254Z,99848.73
2018-11-11T03:54:03.067Z,99853.00
2018-11-11T03:55:08.519Z,99848.28
2018-11-11T03:56:14.280Z,99847.03
2018-11-11T03:57:20.156Z,99856.03
2018-11-11T03:58:25.964Z,99852.64
2018-11-11T03:59:31.749Z,99851.84
2018-11-11T04:00:37.518Z,99858.08
2018-11-11T04:01:43.311Z,99859.62
2018-11-11T04:02:49.099Z,99863.52
2018-11-11T04:03:54.909Z,99861.87
2018-11-11T04:05:00.707Z,99860.93
2018-11-11T04:06:06.531Z,99866.86
2018-11-11T04:07:12.312Z,99860.53
2018-11-11T04:08:18.075Z,99860.05
2018-11-11T04:09:23.920Z,99859.89
2018-11-11T04:10:29.791Z,99862.31
2018-11-11T04:11:35.798Z,99857.78
2018-11-11T04:12:41.625Z,99863.25
2018-11-11T04:13:47.406Z,99856.66
2018-11-11T04:14:53.185Z,99857.17
2018-11-11T04:15:58.948Z,99858.38
2018-11-11T04:17:04.783Z,99852.34
2018-11-11T04:18:10.582Z,99858.54
2018-11-11T04:19:16.309Z,99856.83
2018-11-11T04:20:22.080Z,99856.97
2018-11-11T04:21:27.915Z,99859.02
2018-11-11T04:22:33.691Z,99855.83
2018-11-11T04:23:39.495Z,99857.38
2018-11-11T04:24:45.327Z,99861.97
2018-11-11T04:25:51.119Z,99857.19
2018-11-11T04:26:56.877Z,99860.58
2018-11-11T04:28:02.684Z,99859.69
2018-11-11T04:29:08.494Z,99854.95
2018-11-11T04:30:14.274Z,99856.30
2018-11-11T04:31:20.114Z,99849.64
2018-11-11T04:32:28.190Z,99847.59
2018-11-11T04:33:35.744Z,99855.98
2018-11-11T04:34:41.477Z,99847.83
2018-11-11T04:35:47.273Z,99841.51
2018-11-11T04:36:53.088Z,99847.25
2018-11-11T04:37:58.890Z,99838.87
2018-11-11T04:39:08.447Z,99843.44
2018-11-11T04:40:15.314Z,99843.70
2018-11-11T04:41:21.090Z,99843.77
2018-11-11T04:42:26.912Z,99842.41
2018-11-11T04:43:32.712Z,99836.56
2018-11-11T04:44:39.444Z,99844.22
2018-11-11T04:45:46.148Z,99845.69
2018-11-11T04:46:51.929Z,99840.46
2018-11-11T04:47:57.750Z,99843.42
2018-11-11T04:49:03.526Z,99850.08
2018-11-11T04:50:08.607Z,99844.51
2018-11-11T04:51:14.446Z,99855.67
2018-11-11T04:52:21.182Z,99845.23
2018-11-11T04:53:27.880Z,99850.91
2018-11-11T04:54:33.650Z,99852.95
2018-11-11T04:55:39.457Z,99852.85
2018-11-11T04:56:45.256Z,99854.98
2018-11-11T04:57:51.053Z,99854.12
2018-11-11T04:58:56.844Z,99851.25
2018-11-11T05:00:02.673Z,99849.50
2018-11-11T05:01:08.518Z,99856.63
2018-11-11T05:02:14.283Z,99853.41
2018-11-11T05:03:20.088Z,99858.13
2018-11-11T05:04:25.960Z,99860.38
2018-11-11T05:05:31.921Z,99857.23
2018-11-11T05:06:37.680Z,99867.81
2018-11-11T05:07:43.501Z,99863.20
2018-11-11T05:08:50.198Z,99863.31
2018-11-11T05:09:55.945Z,99863.56
2018-11-11T05:11:01.733Z,99864.53
2018-11-11T05:12:07.429Z,99858.47
2018-11-11T05:13:13.196Z,99862.41
2018-11-11T05:14:18.975Z,99866.38
2018-11-11T05:15:24.787Z,99860.89
2018-11-11T05:16:30.579Z,99864.08
2018-11-11T05:17:36.427Z,99863.34
2018-11-11T05:18:42.947Z,99866.27
2018-11-11T05:19:48.809Z,99870.91
2018-11-11T05:20:54.600Z,99877.69
2018-11-11T05:22:00.548Z,99874.55
2018-11-11T05:23:06.577Z,99869.36
2018-11-11T05:24:12.389Z,99865.57
2018-11-11T05:25:18.188Z,99861.50
2018-11-11T05:26:23.989Z,99865.36
2018-11-11T05:27:29.853Z,99862.75
2018-11-11T05:28:35.632Z,99867.69
2018-11-11T05:29:41.437Z,99871.61
2018-11-11T05:30:47.310Z,99861.71
2018-11-11T05:31:53.302Z,99852.06
2018-11-11T05:32:59.136Z,99853.36
2018-11-11T05:34:04.208Z,99858.45
2018-11-11T05:35:09.737Z,99855.57
2018-11-11T05:36:15.578Z,99855.73
2018-11-11T05:37:21.381Z,99849.69
2018-11-11T05:38:27.188Z,99862.98
2018-11-11T05:39:33.044Z,99851.81
2018-11-11T05:40:38.880Z,99850.88
2018-11-11T05:41:44.726Z,99851.21
2018-11-11T05:42:50.527Z,99850.32
2018-11-11T05:43:56.296Z,99864.28
2018-11-11T05:45:02.073Z,99861.27
2018-11-11T05:46:07.870Z,99855.55
2018-11-11T05:47:13.697Z,99852.88
2018-11-11T05:48:19.517Z,99861.96
2018-11-11T05:49:25.340Z,99853.15
2018-11-11T05:50:31.184Z,99854.89
2018-11-11T05:51:37.564Z,99855.64
2018-11-11T05:52:44.515Z,99854.14
2018-11-11T05:53:50.644Z,99855.45
2018-11-11T05:54:56.748Z,99843.34
2018-11-11T05:56:03.232Z,99848.75
2018-11-11T05:57:10.478Z,99843.78
2018-11-11T05:58:17.020Z,99851.83
2018-11-11T05:59:23.740Z,99860.53
2018-11-11T06:00:30.084Z,99856.10
2018-11-11T06:01:36.369Z,99863.39
2018-11-11T06:02:42.536Z,99859.39
2018-11-11T06:03:49.804Z,99855.56
2018-11-11T06:04:57.097Z,99856.64
2018-11-11T06:06:04.741Z,99851.93
2018-11-11T06:07:11.466Z,99848.73
2018-11-11T06:08:19.175Z,99854.63
2018-11-11T06:09:25.731Z,99847.05
2018-11-11T06:10:32.115Z,99852.55
2018-11-11T06:11:38.410Z,99845.83
2018-11-11T06:12:43.904Z,99843.00
2018-11-11T06:13:49.727Z,99842.23
2018-11-11T06:14:55.561Z,99841.42
2018-11-11T06:16:01.359Z,99844.30
2018-11-11T06:17:07.121Z,99840.33
2018-11-11T06:18:12.916Z,99846.13
2018-11-11T06:19:18.714Z,99840.05
2018-11-11T06:20:24.462Z,99842.66
2018-11-11T06:21:30.047Z,99840.70
2018-11-11T06:22:35.924Z,99849.35
2018-11-11T06:23:42.294Z,99854.02
2018-11-11T06:24:48.999Z,99857.20
2018-11-11T06:25:55.466Z,99863.63
2018-11-11T06:27:01.396Z,99864.34
2018-11-11T06:28:07.429Z,99869.11
2018-11-11T06:29:13.240Z,99873.67
2018-11-11T06:30:19.683Z,99877.66
2018-11-11T06:31:26.676Z,99876.12
2018-11-11T06:32:33.187Z,99876.58
2018-11-11T06:33:39.105Z,99877.01
2018-11-11T06:34:45.333Z,99878.98
2018-11-11T06:35:51.562Z,99880.15
2018-11-11T06:36:59.585Z,99874.95
2018-11-11T06:38:05.983Z,99873.92
2018-11-11T06:39:13.108Z,99868.34
2018-11-11T06:40:19.091Z,99870.13
2018-11-11T06:41:25.265Z,99868.47
2018-11-11T06:42:31.104Z,99873.22
2018-11-11T06:43:36.946Z,99874.19
2018-11-11T06:44:42.797Z,99869.44
2018-11-11T06:45:52.094Z,99867.06
2018-11-11T06:46:58.327Z,99864.74
2018-11-11T06:48:04.175Z,99868.05
2018-11-11T06:49:10.131Z,99867.94
2018-11-11T06:50:17.000Z,99872.03
2018-11-11T06:51:24.107Z,99869.48
2018-11-11T06:52:30.850Z,99867.38
2018-11-11T06:53:37.619Z,99868.77
2018-11-11T06:54:44.061Z,99864.98
2018-11-11T06:55:50.258Z,99872.98
2018-11-11T06:56:56.171Z,99868.02
2018-11-11T06:58:02.483Z,99877.14
2018-11-11T06:59:09.171Z,99880.75
2018-11-11T07:00:17.606Z,99887.98
2018-11-11T07:01:24.084Z,99889.10
2018-11-11T07:02:29.741Z,99892.67
2018-11-11T07:03:41.043Z,99884.45
2018-11-11T07:04:47.221Z,99880.75
2018-11-11T07:05:53.412Z,99869.95
2018-11-11T07:06:59.316Z,99867.99
2018-11-11T07:08:05.856Z,99863.46
2018-11-11T07:09:12.387Z,99869.12
2018-11-11T07:10:19.363Z,99875.22
2018-11-11T07:11:25.477Z,99877.57
2018-11-11T07:12:32.127Z,99884.26
2018-11-11T07:13:38.516Z,99884.05
2018-11-11T07:14:44.689Z,99886.67
2018-11-11T07:15:50.699Z,99886.19
2018-11-11T07:16:56.920Z,99882.83
2018-11-11T07:18:02.949Z,99871.81
2018-11-11T07:19:10.055Z,99874.27
2018-11-11T07:20:15.942Z,99877.18
2018-11-11T07:21:21.779Z,99864.16
2018-11-11T07:22:27.627Z,99862.48
2018-11-11T07:23:33.525Z,99863.08
2018-11-11T07:24:40.167Z,99866.05
2018-11-11T07:25:46.506Z,99875.72
2018-11-11T07:26:52.288Z,99870.53
2018-11-11T07:27:58.097Z,99875.05
2018-11-11T07:29:03.923Z,99871.80
2018-11-11T07:30:09.035Z,99872.83
2018-11-11T07:31:19.417Z,99880.75
2018-11-11T07:32:27.852Z,99883.80
2018-11-11T07:33:34.115Z,99887.64
2018-11-11T07:34:41.085Z,99890.90
2018-11-11T07:35:47.677Z,99892.34
2018-11-11T07:36:54.225Z,99895.05
2018-11-11T07:38:00.778Z,99893.28
2018-11-11T07:39:06.968Z,99895.23
2018-11-11T07:40:13.574Z,99895.33
2018-11-11T07:41:20.092Z,99898.31
2018-11-11T07:42:26.325Z,99893.93
2018-11-11T07:43:32.628Z,99894.30
2018-11-11T07:44:39.136Z,99885.16
2018-11-11T07:45:45.048Z,99886.26
2018-11-11T07:46:51.189Z,99890.16
2018-11-11T07:47:57.342Z,99885.80
2018-11-11T07:49:03.609Z,99883.91
2018-11-11T07:50:09.983Z,99896.17
2018-11-11T07:51:16.495Z,99894.92
2018-11-11T07:52:22.602Z,99896.97
2018-11-11T07:53:28.701Z,99896.66
2018-11-11T07:54:35.113Z,99899.79
2018-11-11T07:55:41.962Z,99906.50
2018-11-11T07:56:48.173Z,99906.77
2018-11-11T07:57:54.549Z,99905.59
2018-11-11T07:59:00.487Z,99906.93
2018-11-11T08:00:06.500Z,99909.52
2018-11-11T08:01:12.959Z,99915.49
2018-11-11T08:02:19.323Z,99913.30
2018-11-11T08:03:27.166Z,99913.02
2018-11-11T08:04:40.157Z,99915.49
2018-11-11T08:05:46.409Z,99915.64
2018-11-11T08:06:52.628Z,99918.38
2018-11-11T08:07:58.811Z,99920.05
2018-11-11T08:09:05.425Z,99924.80
2018-11-11T08:10:12.105Z,99915.69
2018-11-11T08:23:33.736Z,99934.73
2018-11-11T08:24:48.937Z,99941.30
2018-11-11T08:25:57.311Z,99935.44
2018-11-11T08:27:05.080Z,99929.34
2018-11-11T08:28:15.105Z,99928.70
2018-11-11T08:29:21.635Z,99930.50
2018-11-11T08:30:29.642Z,99930.19
2018-11-11T08:31:39.965Z,99933.84
2018-11-11T08:32:47.920Z,99925.68
2018-11-11T08:33:56.865Z,99925.87
2018-11-11T08:35:04.337Z,99927.09
2018-11-11T08:36:14.015Z,99921.27
2018-11-11T08:37:20.456Z,99919.47
2018-11-11T08:38:30.181Z,99925.16
2018-11-11T08:39:36.944Z,99930.20
2018-11-11T08:40:45.982Z,99923.42
2018-11-11T08:41:55.842Z,99931.27
2018-11-11T08:43:05.910Z,99922.00
2018-11-11T08:44:12.875Z,99924.91
2018-11-11T08:45:21.613Z,99935.22
2018-11-11T08:46:30.361Z,99944.19
2018-11-11T08:47:37.997Z,99939.06
2018-11-11T08:48:48.378Z,99944.64
2018-11-11T08:49:57.181Z,99941.52
2018-11-11T08:51:05.041Z,99949.29
2018-11-11T08:52:15.956Z,99947.37
2018-11-11T08:53:23.108Z,99950.05
2018-11-11T08:54:30.557Z,99954.13
2018-11-11T08:55:40.777Z,99962.30
2018-11-11T08:56:50.576Z,99965.98
2018-11-11T08:57:58.192Z,99974.11
2018-11-11T08:59:07.139Z,99969.58
2018-11-11T09:00:18.390Z,99967.01
2018-11-11T09:01:27.420Z,99972.81
2018-11-11T09:02:34.091Z,99977.00
2018-11-11T09:03:40.859Z,99979.34
2018-11-11T09:04:48.772Z,99994.05
2018-11-11T09:05:57.478Z,100008.30
2018-11-11T09:07:11.875Z,100013.31
2018-11-11T09:08:24.217Z,100008.59
2018-11-11T09:09:33.607Z,100006.13
2018-11-11T09:10:46.230Z,100007.08
2018-11-11T09:11:54.529Z,100010.00
2018-11-11T09:13:04.795Z,100014.99
2018-11-11T09:14:13.306Z,100011.64
2018-11-11T09:15:22.869Z,100016.89
2018-11-11T09:16:32.128Z,100015.32
2018-11-11T09:17:42.519Z,100024.31
2018-11-11T09:18:49.625Z,100030.52
2018-11-11T09:19:56.523Z,100032.79
2018-11-11T09:21:04.347Z,100028.88
2018-11-11T09:22:11.452Z,100024.52
2018-11-11T09:23:20.256Z,100030.42
2018-11-11T09:24:27.182Z,100035.25
2018-11-11T09:25:37.035Z,100035.58
2018-11-11T09:26:48.328Z,100041.39
2018-11-11T09:28:00.149Z,100040.22
2018-11-11T09:29:14.175Z,100047.05
2018-11-11T09:30:24.396Z,100038.31
2018-11-11T09:31:33.267Z,100038.87
2018-11-11T09:32:43.836Z,100033.45
2018-11-11T09:33:51.866Z,100031.61
2018-11-11T09:35:00.749Z,100031.24
2018-11-11T09:36:07.829Z,100031.34
2018-11-11T09:37:15.691Z,100038.41
2018-11-11T09:38:22.411Z,100039.09
2018-11-11T09:39:30.850Z,100039.81
2018-11-11T09:40:38.625Z,100053.94
2018-11-11T09:41:44.642Z,100049.21
2018-11-11T09:42:52.018Z,100054.53
2018-11-11T09:43:58.165Z,100049.31
2018-11-11T09:45:10.210Z,100057.26
2018-11-11T09:46:16.436Z,100051.58
2018-11-11T09:47:25.014Z,100057.03
2018-11-11T09:48:35.583Z,100056.34
2018-11-11T09:49:46.585Z,100055.62
2018-11-11T09:50:57.942Z,100055.95
2018-11-11T09:52:06.017Z,100056.73
2018-11-11T09:53:15.910Z,100058.70
2018-11-11T09:54:22.580Z,100059.32
2018-11-11T09:55:32.003Z,100059.48
2018-11-11T09:56:42.864Z,100059.82
2018-11-11T09:57:50.770Z,100061.59
2018-11-11T09:58:56.748Z,100067.52
2018-11-11T10:00:03.084Z,100063.63
2018-11-11T10:01:12.107Z,100060.59
2018-11-11T10:02:17.970Z,100060.24
2018-11-11T10:03:25.050Z,100066.81
2018-11-11T10:04:39.198Z,100068.18
2018-11-11T10:05:48.406Z,100066.44
2018-11-11T10:06:55.257Z,100068.12
2018-11-11T10:08:01.448Z,100067.70
2018-11-11T10:09:07.137Z,100059.39
2018-11-11T10:10:19.537Z,100046.53
2018-11-11T10:11:25.483Z,100049.47
2018-11-11T10:12:33.796Z,100062.34
2018-11-11T10:13:42.095Z,100066.93
2018-11-11T10:14:52.433Z,100061.68
2018-11-11T10:16:00.564Z,100067.95
2018-11-11T10:17:11.801Z,100076.69
2018-11-11T10:18:19.486Z,100067.63
2018-11-11T10:19:27.429Z,100065.15
2018-11-11T10:20:38.699Z,100066.12
2018-11-11T10:21:47.836Z,100068.45
2018-11-11T10:22:57.982Z,100064.48
2018-11-11T10:24:05.779Z,100062.12
2018-11-11T10:25:14.521Z,100056.10
2018-11-11T10:26:24.173Z,100060.39
2018-11-11T10:27:34.050Z,100055.67
2018-11-11T10:28:40.836Z,100051.81
2018-11-11T10:29:49.556Z,100051.42
2018-11-11T10:31:03.210Z,100048.24
2018-11-11T10:32:09.918Z,100050.16
2018-11-11T10:33:21.325Z,100048.03
2018-11-11T10:34:28.141Z,100047.23
2018-11-11T10:35:35.264Z,100048.64
2018-11-11T10:36:45.789Z,100043.95
2018-11-11T10:37:53.825Z,100046.66
2018-11-11T10:39:01.913Z,100049.20
2018-11-11T10:40:11.666Z,100045.23
2018-11-11T10:41:20.208Z,100051.94
2018-11-11T10:42:26.892Z,100056.83
2018-11-11T10:43:34.754Z,100056.53
2018-11-11T10:44:41.876Z,100064.54
2018-11-11T10:45:49.485Z,100062.11
2018-11-11T10:46:58.132Z,100067.16
2018-11-11T10:48:06.835Z,100059.12
2018-11-11T10:49:13.452Z,100055.31
2018-11-11T10:50:21.394Z,100053.20
2018-11-11T10:51:30.254Z,100051.36
2018-11-11T10:52:38.456Z,100045.62
2018-11-11T10:53:47.565Z,100040.30
2018-11-11T10:55:00.386Z,100033.63
2018-11-11T10:56:06.660Z,100029.99
2018-11-11T10:57:13.702Z,100029.97
2018-11-11T10:58:23.977Z,100013.64
2018-11-11T10:59:34.185Z,100017.95
2018-11-11T11:00:43.865Z,100015.91
2018-11-11T11:01:55.260Z,100019.73
2018-11-11T11:03:03.168Z,100018.59
2018-11-11T11:04:15.962Z,100018.33
2018-11-11T11:05:25.910Z,100017.47
2018-11-11T11:06:38.516Z,100012.81
2018-11-11T11:07:45.938Z,100018.87
2018-11-11T11:08:53.965Z,100012.95
2018-11-11T11:10:03.185Z,100014.63
2018-11-11T11:11:11.364Z,100009.38
2018-11-11T11:12:22.601Z,99992.94
2018-11-11T11:13:37.175Z,99997.48
2018-11-11T11:14:46.846Z,99993.52
2018-11-11T11:15:59.093Z,99996.45
2018-11-11T11:17:07.377Z,100001.76
2018-11-11T11:18:14.800Z,100000.41
2018-11-11T11:19:29.993Z,99993.99
2018-11-11T11:20:37.581Z,100004.13
2018-11-11T11:21:46.454Z,99996.77
2018-11-11T11:22:52.914Z,99996.19
2018-11-11T11:24:05.019Z,99989.97
2018-11-11T11:25:17.105Z,99994.15
2018-11-11T11:26:26.815Z,99999.87
2018-11-11T11:27:33.528Z,100004.07
2018-11-11T11:28:41.742Z,100005.21
2018-11-11T11:29:54.330Z,100008.17
2018-11-11T11:31:06.857Z,100000.12
2018-11-11T11:32:16.240Z,100007.20
2018-11-11T11:33:27.835Z,100011.05
2018-11-11T11:34:35.983Z,100009.17
2018-11-11T11:35:50.381Z,100015.63
2018-11-11T11:36:59.562Z,100017.38
2018-11-11T11:38:08.301Z,100008.78
2018-11-11T11:39:17.585Z,100015.80
2018-11-11T11:40:24.695Z,100015.48
2018-11-11T11:41:34.214Z,100012.08
2018-11-11T11:42:43.067Z,100016.92
2018-11-11T11:43:52.333Z,100014.63
2018-11-11T11:45:06.390Z,100015.25
2018-11-11T11:46:14.995Z,100013.12
2018-11-11T11:47:25.776Z,100002.87
2018-11-11T11:48:33.661Z,100000.58
2018-11-11T11:49:43.906Z,99993.09
2018-11-11T11:50:53.710Z,99988.23
2018-11-11T11:52:01.447Z,99984.16
2018-11-11T11:53:11.892Z,99988.19
2018-11-11T11:54:20.008Z,99994.51
2018-11-11T11:55:32.914Z,99993.03
2018-11-11T11:56:42.940Z,100001.41
2018-11-11T11:57:50.051Z,99999.48
2018-11-11T11:59:02.090Z,99997.57
2018-11-11T12:00:09.604Z,99992.91
2018-11-11T12:01:18.118Z,99991.21
2018-11-11T12:02:24.578Z,99992.95
2018-11-11T12:03:31.004Z,100007.77
2018-11-11T12:04:40.250Z,99995.52
2018-11-11T12:05:51.618Z,99995.48
2018-11-11T12:06:57.690Z,99997.06
2018-11-11T12:08:03.574Z,99998.38
2018-11-11T12:09:11.208Z,99999.00
2018-11-11T12:10:19.260Z,100004.60
2018-11-11T12:11:27.265Z,100008.63
2018-11-11T12:12:34.743Z,100011.62
2018-11-11T12:13:43.140Z,100004.77
2018-11-11T12:14:53.149Z,100011.08
2018-11-11T12:16:02.539Z,100011.09
2018-11-11T12:17:10.891Z,100012.00
2018-11-11T12:18:18.726Z,100013.69
2018-11-11T12:19:26.328Z,100005.61
2018-11-11T12:20:34.936Z,100015.52
2018-11-11T12:21:42.943Z,100008.05
2018-11-11T12:22:50.891Z,100009.67
2018-11-11T12:23:58.823Z,100015.81
2018-11-11T12:25:06.335Z,100015.47
2018-11-11T12:26:12.339Z,100016.66
2018-11-11T12:27:19.633Z,100016.52
2018-11-11T12:28:26.066Z,100026.41
2018-11-11T12:29:33.879Z,100023.21
2018-11-11T12:30:44.234Z,100034.95
2018-11-11T12:31:51.223Z,100036.41
2018-11-11T12:33:01.634Z,100029.93
2018-11-11T12:34:12.418Z,100041.13
2018-11-11T12:35:20.822Z,100042.65
2018-11-11T12:36:29.264Z,100046.16
2018-11-11T12:37:40.516Z,100042.36
2018-11-11T12:38:49.654Z,100038.18
2018-11-11T12:39:58.190Z,100026.15
2018-11-11T12:41:09.275Z,100024.16
2018-11-11T12:42:18.939Z,100026.86
2018-11-11T12:43:28.082Z,100022.02
2018-11-11T12:44:37.911Z,100028.93
2018-11-11T12:45:46.541Z,100020.83
2018-11-11T12:46:55.213Z,100026.02
2018-11-11T12:48:03.807Z,100024.93
2018-11-11T12:49:14.067Z,100025.33
2018-11-11T12:50:22.346Z,100021.53
2018-11-11T12:51:32.026Z,100019.16
2018-11-11T12:52:43.245Z,100015.77
2018-11-11T12:53:50.874Z,100013.34
2018-11-11T12:55:02.133Z,100022.36
2018-11-11T12:56:12.898Z,100012.19
2018-11-11T12:57:20.425Z,100012.72
2018-11-11T12:58:29.181Z,100014.86
2018-11-11T12:59:38.321Z,100018.90
2018-11-11T13:00:48.152Z,100024.69
2018-11-11T13:01:59.972Z,100021.52
2018-11-11T13:03:07.605Z,100028.38
2018-11-11T13:04:17.185Z,100026.52
2018-11-11T13:05:27.628Z,100033.45
2018-11-11T13:06:36.858Z,100029.32
2018-11-11T13:07:46.324Z,100028.44
2018-11-11T13:08:55.249Z,100036.89
2018-11-11T13:10:03.201Z,100041.06
2018-11-11T13:11:15.238Z,100042.11
2018-11-11T13:12:27.397Z,100044.17
2018-11-11T13:13:36.056Z,100046.64